createdAt,value
2023-03-31T00:03:29.620Z,76.16
2023-03-31T00:13:35.674Z,75.74
2023-03-31T00:23:41.044Z,75.81
2023-03-31T00:33:46.601Z,75.69
2023-03-31T00:43:52.483Z,75.52
2023-03-31T00:53:58.345Z,75.88
2023-03-31T01:04:04.103Z,75.58
2023-03-31T01:14:10.195Z,75.45
2023-03-31T01:24:15.637Z,75.42
2023-03-31T01:34:21.294Z,75.34
2023-03-31T01:44:27.021Z,75.05
2023-03-31T01:54:32.595Z,75.10
2023-03-31T02:04:38.358Z,75.13
2023-03-31T02:14:43.904Z,75.31
2023-03-31T02:24:49.865Z,75.55
2023-03-31T02:34:56.382Z,75.34
2023-03-31T02:45:02.698Z,75.44
2023-03-31T02:55:08.602Z,75.62
2023-03-31T03:05:14.699Z,75.43
2023-03-31T03:15:21.242Z,75.30
2023-03-31T03:25:27.282Z,75.28
2023-03-31T03:35:33.004Z,75.24
2023-03-31T03:45:39.195Z,75.19
2023-03-31T03:55:45.491Z,75.38
2023-03-31T04:05:51.072Z,75.37
2023-03-31T04:15:57.544Z,75.31
2023-03-31T04:26:04.027Z,75.58
2023-03-31T04:36:10.009Z,75.18
2023-03-31T04:46:16.576Z,77.93
2023-03-31T04:56:21.458Z,79.55
2023-03-31T05:06:26.736Z,93.29
2023-03-31T05:16:32.788Z,89.05
2023-03-31T05:26:40.499Z,79.57
2023-03-31T05:36:48.177Z,76.73
2023-03-31T05:46:55.338Z,75.44
2023-03-31T05:57:02.629Z,74.73
2023-03-31T06:07:09.833Z,74.32
2023-03-31T06:17:16.625Z,73.87
2023-03-31T06:27:23.171Z,73.65
2023-03-31T06:37:30.199Z,73.40
2023-03-31T06:47:36.537Z,73.23
2023-03-31T06:57:43.441Z,73.16
2023-03-31T07:07:49.577Z,73.13
2023-03-31T07:17:56.217Z,72.94
2023-03-31T07:28:02.468Z,72.78
2023-03-31T07:38:09.378Z,72.59
2023-03-31T07:48:15.874Z,72.44
2023-03-31T07:58:22.839Z,72.27
2023-03-31T08:08:29.247Z,72.22
2023-03-31T08:18:35.933Z,72.12
2023-03-31T08:28:42.597Z,71.93
2023-03-31T08:38:48.735Z,71.87
2023-03-31T08:48:54.994Z,71.79
2023-03-31T08:59:00.771Z,71.69
2023-03-31T09:09:07.044Z,71.65
2023-03-31T09:19:12.422Z,71.80
2023-03-31T09:29:18.560Z,71.78
2023-03-31T09:39:24.671Z,71.79
2023-03-31T09:49:30.835Z,71.84
2023-03-31T09:59:36.804Z,71.84
2023-03-31T10:09:43.101Z,72.01
2023-03-31T10:19:49.025Z,72.07
2023-03-31T10:29:55.068Z,72.36
2023-03-31T10:40:01.351Z,72.41
2023-03-31T10:50:07.815Z,72.38
2023-03-31T11:00:13.905Z,72.40
2023-03-31T11:10:20.256Z,72.45
2023-03-31T11:20:26.069Z,72.46
2023-03-31T11:30:32.696Z,72.13
2023-03-31T11:40:39.448Z,72.15
2023-03-31T11:50:45.719Z,71.56
2023-03-31T12:00:51.892Z,71.27
2023-03-31T12:10:57.822Z,71.53
2023-03-31T12:21:04.184Z,71.37
2023-03-31T12:31:10.517Z,71.42
2023-03-31T12:41:16.899Z,71.36
2023-03-31T12:51:23.066Z,71.52
2023-03-31T13:01:29.000Z,71.41
2023-03-31T13:11:35.518Z,71.51
2023-03-31T13:21:41.900Z,71.64
2023-03-31T13:31:48.493Z,71.39
2023-03-31T13:41:55.128Z,71.46
2023-03-31T13:52:01.316Z,71.53
2023-03-31T14:02:07.226Z,71.65
2023-03-31T14:12:13.318Z,71.59
2023-03-31T14:22:19.803Z,71.44
2023-03-31T14:32:26.063Z,71.47
2023-03-31T14:42:32.001Z,71.49
2023-03-31T14:56:38.159Z,71.17
2023-03-31T15:06:42.355Z,71.26
2023-03-31T15:16:48.012Z,71.41
2023-03-31T15:26:55.413Z,71.56
2023-03-31T15:37:01.901Z,71.56
2023-03-31T15:47:07.323Z,71.59
2023-03-31T15:57:14.322Z,71.59
2023-03-31T16:07:19.960Z,71.52
2023-03-31T16:17:25.978Z,71.56
2023-03-31T16:27:31.396Z,71.65
2023-03-31T16:37:37.105Z,71.61
2023-03-31T16:47:45.240Z,71.74
2023-03-31T16:57:51.563Z,71.83
2023-03-31T17:08:00.070Z,71.71
2023-03-31T17:18:05.842Z,71.91
2023-03-31T17:29:31.338Z,71.88
2023-03-31T17:39:36.374Z,71.97
2023-03-31T17:49:41.555Z,72.10
2023-03-31T17:59:47.570Z,72.14
2023-03-31T18:09:55.682Z,72.11
2023-03-31T18:20:01.519Z,72.22
2023-03-31T18:30:09.317Z,72.19
2023-03-31T18:40:15.151Z,72.22
2023-03-31T18:50:21.113Z,72.25
2023-03-31T19:00:26.884Z,72.25
2023-03-31T19:10:32.602Z,72.28
2023-03-31T19:20:38.603Z,72.31
2023-03-31T19:30:44.608Z,72.31
2023-03-31T19:40:53.469Z,72.20
2023-03-31T19:50:59.093Z,72.27
2023-03-31T20:01:04.523Z,72.29
2023-03-31T20:11:09.882Z,72.29
2023-03-31T20:21:16.032Z,72.29
2023-03-31T20:31:21.566Z,72.35
2023-03-31T20:41:28.420Z,81.82
2023-03-31T20:51:31.489Z,88.46
2023-03-31T21:01:36.352Z,91.06
2023-03-31T21:11:46.962Z,83.64
2023-03-31T21:23:13.438Z,77.23
2023-03-31T21:33:18.684Z,75.72
2023-03-31T21:43:24.562Z,76.51
2023-03-31T21:53:31.585Z,76.46
2023-03-31T22:03:38.740Z,76.06
2023-03-31T22:13:44.357Z,76.91
2023-03-31T22:23:49.830Z,77.06
2023-03-31T22:33:55.855Z,77.22
2023-03-31T22:44:01.447Z,77.69
2023-03-31T22:54:07.126Z,78.13
2023-03-31T23:04:12.938Z,78.48
2023-03-31T23:14:18.869Z,78.32
2023-03-31T23:24:24.538Z,78.21
2023-03-31T23:34:30.404Z,78.28
2023-03-31T23:44:36.053Z,78.31
2023-03-31T23:54:41.206Z,78.15
